Iraklion, Greece
Current Conditions -  °F | °C
As of 3:20 PM on Wednesday 22 Oct 2014 (Local Time) from LGIR Reporting Station
Broken Clouds Broken Clouds  
Wind Chill: 75°   Ceiling: 2500
Heat Index: 75°   Visibility: 6mi
Dew Point: 61°   Wind: 23mph
Humidity: 61%   Direction: 170°S
Pressure: 29.83"   Gusts: NA
Location:  35.32916°N, 25.13853°E
Report Text: LGIR 221220Z 17020KT 9999 BKN025 24/16 Q1010 NOSIG
Loading
Personal Weather Stations






























Interactive Weather Map
Tropical Storm Tracking
New forecast layout! Learn more

10-Day Weather Forecast

Advertisements
Track Severe Weather on mobile